sensor_id;sensor_type;location;lat;lon;timestamp;temperature;humidity
18191;DHT22;47004;51.366;12.348;2023-09-19T00:00:37;17.40;99.90
18191;DHT22;47004;51.366;12.348;2023-09-19T00:02:39;17.30;99.90
18191;DHT22;47004;51.366;12.348;2023-09-19T00:04:41;17.30;99.90
18191;DHT22;47004;51.366;12.348;2023-09-19T00:06:43;17.30;99.90
18191;DHT22;47004;51.366;12.348;2023-09-19T00:08:45;17.30;99.90
18191;DHT22;47004;51.366;12.348;2023-09-19T00:10:48;17.30;99.90
18191;DHT22;47004;51.366;12.348;2023-09-19T00:12:50;17.30;99.90
18191;DHT22;47004;51.366;12.348;2023-09-19T00:14:53;17.30;99.90
18191;DHT22;47004;51.366;12.348;2023-09-19T00:16:58;17.30;99.90
18191;DHT22;47004;51.366;12.348;2023-09-19T00:19:01;17.30;99.90
18191;DHT22;47004;51.366;12.348;2023-09-19T00:21:08;17.30;99.90
18191;DHT22;47004;51.366;12.348;2023-09-19T00:23:11;17.30;99.90
18191;DHT22;47004;51.366;12.348;2023-09-19T00:25:13;17.20;99.90
18191;DHT22;47004;51.366;12.348;2023-09-19T00:27:16;17.20;99.90
18191;DHT22;47004;51.366;12.348;2023-09-19T00:29:19;17.20;99.90
18191;DHT22;47004;51.366;12.348;2023-09-19T00:31:22;17.20;99.90
18191;DHT22;47004;51.366;12.348;2023-09-19T00:33:27;17.20;99.90
18191;DHT22;47004;51.366;12.348;2023-09-19T00:35:30;17.20;99.90
18191;DHT22;47004;51.366;12.348;2023-09-19T00:37:32;17.20;99.90
18191;DHT22;47004;51.366;12.348;2023-09-19T00:39:32;17.10;99.90
18191;DHT22;47004;51.366;12.348;2023-09-19T00:41:35;17.10;99.90
18191;DHT22;47004;51.366;12.348;2023-09-19T00:43:37;17.10;99.90
18191;DHT22;47004;51.366;12.348;2023-09-19T00:45:43;17.10;99.90
18191;DHT22;47004;51.366;12.348;2023-09-19T00:47:48;17.10;99.90
18191;DHT22;47004;51.366;12.348;2023-09-19T00:49:51;17.10;99.90
18191;DHT22;47004;51.366;12.348;2023-09-19T00:51:53;17.10;99.90
18191;DHT22;47004;51.366;12.348;2023-09-19T00:53:57;17.10;99.90
18191;DHT22;47004;51.366;12.348;2023-09-19T00:56:00;17.10;99.90
18191;DHT22;47004;51.366;12.348;2023-09-19T00:58:01;17.10;99.90
18191;DHT22;47004;51.366;12.348;2023-09-19T01:00:04;17.10;99.90
18191;DHT22;47004;51.366;12.348;2023-09-19T01:02:07;17.00;99.90
18191;DHT22;47004;51.366;12.348;2023-09-19T01:04:09;17.00;99.90
18191;DHT22;47004;51.366;12.348;2023-09-19T01:06:12;17.10;99.90
18191;DHT22;47004;51.366;12.348;2023-09-19T01:08:15;17.00;99.90
18191;DHT22;47004;51.366;12.348;2023-09-19T01:10:18;17.00;99.90
18191;DHT22;47004;51.366;12.348;2023-09-19T01:12:26;17.00;99.90
18191;DHT22;47004;51.366;12.348;2023-09-19T01:14:40;17.00;99.90
18191;DHT22;47004;51.366;12.348;2023-09-19T01:16:50;16.90;99.90
18191;DHT22;47004;51.366;12.348;2023-09-19T01:19:05;16.90;99.90
18191;DHT22;47004;51.366;12.348;2023-09-19T01:21:18;17.00;99.90
18191;DHT22;47004;51.366;12.348;2023-09-19T01:23:25;16.90;99.90
18191;DHT22;47004;51.366;12.348;2023-09-19T01:26:08;16.90;99.90
18191;DHT22;47004;51.366;12.348;2023-09-19T01:28:20;16.90;99.90
18191;DHT22;47004;51.366;12.348;2023-09-19T01:30:33;16.90;99.90
18191;DHT22;47004;51.366;12.348;2023-09-19T01:32:38;16.80;99.90
18191;DHT22;47004;51.366;12.348;2023-09-19T01:34:46;16.80;99.90
18191;DHT22;47004;51.366;12.348;2023-09-19T01:36:48;16.80;99.90
18191;DHT22;47004;51.366;12.348;2023-09-19T01:38:50;16.80;99.90
18191;DHT22;47004;51.366;12.348;2023-09-19T01:40:57;16.70;99.90
18191;DHT22;47004;51.366;12.348;2023-09-19T01:43:09;16.70;99.90
18191;DHT22;47004;51.366;12.348;2023-09-19T01:45:23;16.70;99.90
18191;DHT22;47004;51.366;12.348;2023-09-19T01:47:33;16.70;99.90
18191;DHT22;47004;51.366;12.348;2023-09-19T01:49:44;16.70;99.90
18191;DHT22;47004;51.366;12.348;2023-09-19T01:51:53;16.70;99.90
18191;DHT22;47004;51.366;12.348;2023-09-19T01:54:00;16.60;99.90
18191;DHT22;47004;51.366;12.348;2023-09-19T01:56:05;16.70;99.90
18191;DHT22;47004;51.366;12.348;2023-09-19T01:58:17;16.70;99.90
18191;DHT22;47004;51.366;12.348;2023-09-19T02:00:23;16.70;99.90
18191;DHT22;47004;51.366;12.348;2023-09-19T02:02:29;16.70;99.90
18191;DHT22;47004;51.366;12.348;2023-09-19T02:04:32;16.70;99.90
18191;DHT22;47004;51.366;12.348;2023-09-19T02:06:39;16.70;99.90
18191;DHT22;47004;51.366;12.348;2023-09-19T02:08:42;16.80;99.90
18191;DHT22;47004;51.366;12.348;2023-09-19T02:10:42;16.80;99.90
18191;DHT22;47004;51.366;12.348;2023-09-19T02:12:47;16.80;99.90
18191;DHT22;47004;51.366;12.348;2023-09-19T02:14:49;16.80;99.90
18191;DHT22;47004;51.366;12.348;2023-09-19T02:16:51;16.80;99.90
18191;DHT22;47004;51.366;12.348;2023-09-19T02:18:54;16.80;99.90
18191;DHT22;47004;51.366;12.348;2023-09-19T02:20:56;16.80;99.90
18191;DHT22;47004;51.366;12.348;2023-09-19T02:22:59;16.80;99.90
18191;DHT22;47004;51.366;12.348;2023-09-19T02:25:01;16.80;99.90
18191;DHT22;47004;51.366;12.348;2023-09-19T02:27:02;16.80;99.90
18191;DHT22;47004;51.366;12.348;2023-09-19T02:29:06;16.80;99.90
18191;DHT22;47004;51.366;12.348;2023-09-19T02:31:08;16.80;99.90
18191;DHT22;47004;51.366;12.348;2023-09-19T02:33:11;16.80;99.90
18191;DHT22;47004;51.366;12.348;2023-09-19T02:35:15;16.80;99.90
18191;DHT22;47004;51.366;12.348;2023-09-19T02:37:17;16.80;99.90
18191;DHT22;47004;51.366;12.348;2023-09-19T02:39:19;16.90;99.90
18191;DHT22;47004;51.366;12.348;2023-09-19T02:41:20;16.90;99.90
18191;DHT22;47004;51.366;12.348;2023-09-19T02:43:23;16.90;99.90
18191;DHT22;47004;51.366;12.348;2023-09-19T02:45:25;16.90;99.90
18191;DHT22;47004;51.366;12.348;2023-09-19T02:47:29;16.90;99.90
18191;DHT22;47004;51.366;12.348;2023-09-19T02:49:32;16.90;99.90
18191;DHT22;47004;51.366;12.348;2023-09-19T02:51:35;16.90;99.90
18191;DHT22;47004;51.366;12.348;2023-09-19T02:53:38;16.90;99.90
18191;DHT22;47004;51.366;12.348;2023-09-19T02:55:40;16.90;99.90
18191;DHT22;47004;51.366;12.348;2023-09-19T02:57:46;16.90;99.90
18191;DHT22;47004;51.366;12.348;2023-09-19T02:59:48;17.00;99.90
18191;DHT22;47004;51.366;12.348;2023-09-19T03:01:50;17.00;99.90
18191;DHT22;47004;51.366;12.348;2023-09-19T03:03:55;16.90;99.90
18191;DHT22;47004;51.366;12.348;2023-09-19T03:05:57;17.00;99.90
18191;DHT22;47004;51.366;12.348;2023-09-19T03:08:01;17.00;99.90
18191;DHT22;47004;51.366;12.348;2023-09-19T03:10:04;17.00;99.90
18191;DHT22;47004;51.366;12.348;2023-09-19T03:12:06;17.00;99.90
18191;DHT22;47004;51.366;12.348;2023-09-19T03:14:08;17.00;99.90
18191;DHT22;47004;51.366;12.348;2023-09-19T03:16:10;17.00;99.90
18191;DHT22;47004;51.366;12.348;2023-09-19T03:18:15;17.00;99.90
18191;DHT22;47004;51.366;12.348;2023-09-19T03:20:20;17.00;99.90
18191;DHT22;47004;51.366;12.348;2023-09-19T03:22:23;17.00;99.90
18191;DHT22;47004;51.366;12.348;2023-09-19T03:24:26;17.10;99.90
18191;DHT22;47004;51.366;12.348;2023-09-19T03:26:29;17.10;99.90
18191;DHT22;47004;51.366;12.348;2023-09-19T03:28:33;17.10;99.90
18191;DHT22;47004;51.366;12.348;2023-09-19T03:30:36;17.10;99.90
18191;DHT22;47004;51.366;12.348;2023-09-19T03:32:44;17.10;99.90
18191;DHT22;47004;51.366;12.348;2023-09-19T03:34:46;17.10;99.90
18191;DHT22;47004;51.366;12.348;2023-09-19T03:36:49;17.10;99.90
18191;DHT22;47004;51.366;12.348;2023-09-19T03:38:51;17.10;99.90
18191;DHT22;47004;51.366;12.348;2023-09-19T03:40:55;17.00;99.90
18191;DHT22;47004;51.366;12.348;2023-09-19T03:42:58;17.00;99.90
18191;DHT22;47004;51.366;12.348;2023-09-19T03:45:02;17.00;99.90
18191;DHT22;47004;51.366;12.348;2023-09-19T03:47:06;17.00;99.90
18191;DHT22;47004;51.366;12.348;2023-09-19T03:49:08;17.00;99.90
18191;DHT22;47004;51.366;12.348;2023-09-19T03:51:10;17.00;99.90
18191;DHT22;47004;51.366;12.348;2023-09-19T03:53:12;16.90;99.90
18191;DHT22;47004;51.366;12.348;2023-09-19T03:55:14;16.90;99.90
18191;DHT22;47004;51.366;12.348;2023-09-19T03:57:18;16.90;99.90
18191;DHT22;47004;51.366;12.348;2023-09-19T03:59:21;16.90;99.90
18191;DHT22;47004;51.366;12.348;2023-09-19T04:01:23;16.80;99.90
18191;DHT22;47004;51.366;12.348;2023-09-19T04:03:25;16.80;99.90
18191;DHT22;47004;51.366;12.348;2023-09-19T04:05:35;16.80;99.90
18191;DHT22;47004;51.366;12.348;2023-09-19T04:07:37;16.80;99.90
18191;DHT22;47004;51.366;12.348;2023-09-19T04:09:38;16.80;99.90
18191;DHT22;47004;51.366;12.348;2023-09-19T04:11:40;16.70;99.90
18191;DHT22;47004;51.366;12.348;2023-09-19T04:13:43;16.70;99.90
18191;DHT22;47004;51.366;12.348;2023-09-19T04:15:45;16.70;99.90
18191;DHT22;47004;51.366;12.348;2023-09-19T04:17:47;16.70;99.90
18191;DHT22;47004;51.366;12.348;2023-09-19T04:19:48;16.70;99.90
18191;DHT22;47004;51.366;12.348;2023-09-19T04:21:50;16.70;99.90
18191;DHT22;47004;51.366;12.348;2023-09-19T04:23:52;16.70;99.90
18191;DHT22;47004;51.366;12.348;2023-09-19T04:25:54;16.60;99.90
18191;DHT22;47004;51.366;12.348;2023-09-19T04:27:57;16.60;99.90
18191;DHT22;47004;51.366;12.348;2023-09-19T04:30:00;16.60;99.90
18191;DHT22;47004;51.366;12.348;2023-09-19T04:32:10;16.60;99.90
18191;DHT22;47004;51.366;12.348;2023-09-19T04:34:14;16.60;99.90
18191;DHT22;47004;51.366;12.348;2023-09-19T04:36:18;16.60;99.90
18191;DHT22;47004;51.366;12.348;2023-09-19T04:38:21;16.60;99.90
18191;DHT22;47004;51.366;12.348;2023-09-19T04:40:24;16.60;99.90
18191;DHT22;47004;51.366;12.348;2023-09-19T04:42:27;16.60;99.90
18191;DHT22;47004;51.366;12.348;2023-09-19T04:44:28;16.60;99.90
18191;DHT22;47004;51.366;12.348;2023-09-19T04:46:31;16.60;99.90
18191;DHT22;47004;51.366;12.348;2023-09-19T04:48:32;16.60;99.90
18191;DHT22;47004;51.366;12.348;2023-09-19T04:50:35;16.50;99.90
18191;DHT22;47004;51.366;12.348;2023-09-19T04:52:39;16.50;99.90
18191;DHT22;47004;51.366;12.348;2023-09-19T04:54:44;16.50;99.90
18191;DHT22;47004;51.366;12.348;2023-09-19T04:56:46;16.50;99.90
18191;DHT22;47004;51.366;12.348;2023-09-19T04:58:48;16.60;99.90
18191;DHT22;47004;51.366;12.348;2023-09-19T05:00:50;16.50;99.90
18191;DHT22;47004;51.366;12.348;2023-09-19T05:02:55;16.50;99.90
18191;DHT22;47004;51.366;12.348;2023-09-19T05:04:58;16.50;99.90
18191;DHT22;47004;51.366;12.348;2023-09-19T05:07:01;16.50;99.90
18191;DHT22;47004;51.366;12.348;2023-09-19T05:09:04;16.50;99.90
18191;DHT22;47004;51.366;12.348;2023-09-19T05:11:06;16.50;99.90
18191;DHT22;47004;51.366;12.348;2023-09-19T05:13:09;16.50;99.90
18191;DHT22;47004;51.366;12.348;2023-09-19T05:15:11;16.40;99.90
18191;DHT22;47004;51.366;12.348;2023-09-19T05:17:13;16.40;99.90
18191;DHT22;47004;51.366;12.348;2023-09-19T05:19:20;16.40;99.90
18191;DHT22;47004;51.366;12.348;2023-09-19T05:21:22;16.40;99.90
18191;DHT22;47004;51.366;12.348;2023-09-19T05:23:24;16.40;99.90
18191;DHT22;47004;51.366;12.348;2023-09-19T05:25:28;16.40;99.90
18191;DHT22;47004;51.366;12.348;2023-09-19T05:27:30;16.40;99.90
18191;DHT22;47004;51.366;12.348;2023-09-19T05:29:34;16.40;99.90
18191;DHT22;47004;51.366;12.348;2023-09-19T05:31:35;16.30;99.90
18191;DHT22;47004;51.366;12.348;2023-09-19T05:33:41;16.30;99.90
18191;DHT22;47004;51.366;12.348;2023-09-19T05:35:45;16.30;99.90
18191;DHT22;47004;51.366;12.348;2023-09-19T05:37:47;16.30;99.90
18191;DHT22;47004;51.366;12.348;2023-09-19T05:39:51;16.30;99.90
18191;DHT22;47004;51.366;12.348;2023-09-19T05:41:53;16.30;99.90
18191;DHT22;47004;51.366;12.348;2023-09-19T05:43:55;16.30;99.90
18191;DHT22;47004;51.366;12.348;2023-09-19T05:45:59;16.20;99.90
18191;DHT22;47004;51.366;12.348;2023-09-19T05:48:08;16.20;99.90
18191;DHT22;47004;51.366;12.348;2023-09-19T05:50:10;16.20;99.90
18191;DHT22;47004;51.366;12.348;2023-09-19T05:52:13;16.20;99.90
18191;DHT22;47004;51.366;12.348;2023-09-19T05:54:15;16.10;99.90
18191;DHT22;47004;51.366;12.348;2023-09-19T05:56:18;16.20;99.90
18191;DHT22;47004;51.366;12.348;2023-09-19T05:58:21;16.20;99.90
18191;DHT22;47004;51.366;12.348;2023-09-19T06:00:24;16.20;99.90
18191;DHT22;47004;51.366;12.348;2023-09-19T06:02:28;16.20;99.90
18191;DHT22;47004;51.366;12.348;2023-09-19T06:04:30;16.20;99.90
18191;DHT22;47004;51.366;12.348;2023-09-19T06:06:32;16.30;99.90
18191;DHT22;47004;51.366;12.348;2023-09-19T06:08:35;16.10;99.90
18191;DHT22;47004;51.366;12.348;2023-09-19T06:10:37;16.10;99.90
18191;DHT22;47004;51.366;12.348;2023-09-19T06:12:40;16.20;99.90
18191;DHT22;47004;51.366;12.348;2023-09-19T06:14:44;16.10;99.90
18191;DHT22;47004;51.366;12.348;2023-09-19T06:16:46;16.10;99.90
18191;DHT22;47004;51.366;12.348;2023-09-19T06:18:48;16.20;99.90
18191;DHT22;47004;51.366;12.348;2023-09-19T06:20:53;16.20;99.90
18191;DHT22;47004;51.366;12.348;2023-09-19T06:22:56;16.20;99.90
18191;DHT22;47004;51.366;12.348;2023-09-19T06:25:00;16.20;99.90
18191;DHT22;47004;51.366;12.348;2023-09-19T06:27:02;16.30;99.90
18191;DHT22;47004;51.366;12.348;2023-09-19T06:29:04;16.30;99.90
18191;DHT22;47004;51.366;12.348;2023-09-19T06:31:08;16.30;99.90
18191;DHT22;47004;51.366;12.348;2023-09-19T06:33:10;16.40;99.90
18191;DHT22;47004;51.366;12.348;2023-09-19T06:35:14;16.40;99.90
18191;DHT22;47004;51.366;12.348;2023-09-19T06:37:16;16.40;99.90
18191;DHT22;47004;51.366;12.348;2023-09-19T06:39:18;16.50;99.90
18191;DHT22;47004;51.366;12.348;2023-09-19T06:41:24;16.50;99.90
18191;DHT22;47004;51.366;12.348;2023-09-19T06:43:26;16.60;99.90
18191;DHT22;47004;51.366;12.348;2023-09-19T06:45:29;16.60;99.90
18191;DHT22;47004;51.366;12.348;2023-09-19T06:47:32;16.70;99.90
18191;DHT22;47004;51.366;12.348;2023-09-19T06:49:34;16.80;99.90
18191;DHT22;47004;51.366;12.348;2023-09-19T06:51:36;16.80;99.90
18191;DHT22;47004;51.366;12.348;2023-09-19T06:53:38;16.90;99.90
18191;DHT22;47004;51.366;12.348;2023-09-19T06:55:40;16.90;99.90
18191;DHT22;47004;51.366;12.348;2023-09-19T06:57:46;17.10;99.90
18191;DHT22;47004;51.366;12.348;2023-09-19T06:59:47;17.10;99.90
18191;DHT22;47004;51.366;12.348;2023-09-19T07:01:49;17.20;99.90
18191;DHT22;47004;51.366;12.348;2023-09-19T07:03:52;17.20;99.90
18191;DHT22;47004;51.366;12.348;2023-09-19T07:05:55;17.30;99.90
18191;DHT22;47004;51.366;12.348;2023-09-19T07:07:59;17.40;99.90
18191;DHT22;47004;51.366;12.348;2023-09-19T07:10:01;17.50;99.90
18191;DHT22;47004;51.366;12.348;2023-09-19T07:12:03;17.50;99.90
18191;DHT22;47004;51.366;12.348;2023-09-19T07:14:06;17.60;99.90
18191;DHT22;47004;51.366;12.348;2023-09-19T07:16:08;17.70;99.90
18191;DHT22;47004;51.366;12.348;2023-09-19T07:18:14;17.70;99.90
18191;DHT22;47004;51.366;12.348;2023-09-19T07:20:17;17.70;99.90
18191;DHT22;47004;51.366;12.348;2023-09-19T07:22:19;17.80;99.90
18191;DHT22;47004;51.366;12.348;2023-09-19T07:24:21;17.80;99.90
18191;DHT22;47004;51.366;12.348;2023-09-19T07:26:24;17.90;99.90
18191;DHT22;47004;51.366;12.348;2023-09-19T07:28:26;17.90;99.90
18191;DHT22;47004;51.366;12.348;2023-09-19T07:30:30;18.00;99.90
18191;DHT22;47004;51.366;12.348;2023-09-19T07:32:32;18.00;99.90
18191;DHT22;47004;51.366;12.348;2023-09-19T07:34:34;18.00;99.90
18191;DHT22;47004;51.366;12.348;2023-09-19T07:36:36;18.00;99.90
18191;DHT22;47004;51.366;12.348;2023-09-19T07:38:38;18.10;99.90
18191;DHT22;47004;51.366;12.348;2023-09-19T07:40:40;18.10;99.90
18191;DHT22;47004;51.366;12.348;2023-09-19T07:42:42;18.20;99.90
18191;DHT22;47004;51.366;12.348;2023-09-19T07:44:45;18.30;99.90
18191;DHT22;47004;51.366;12.348;2023-09-19T07:46:51;18.30;99.90
18191;DHT22;47004;51.366;12.348;2023-09-19T07:48:54;18.40;99.90
18191;DHT22;47004;51.366;12.348;2023-09-19T07:50:56;18.40;99.90
18191;DHT22;47004;51.366;12.348;2023-09-19T07:52:58;18.50;99.90
18191;DHT22;47004;51.366;12.348;2023-09-19T07:55:00;18.60;99.90
18191;DHT22;47004;51.366;12.348;2023-09-19T07:57:02;18.60;99.90
18191;DHT22;47004;51.366;12.348;2023-09-19T07:59:04;18.70;99.90
18191;DHT22;47004;51.366;12.348;2023-09-19T08:01:08;18.80;99.90
18191;DHT22;47004;51.366;12.348;2023-09-19T08:03:12;18.90;99.90
18191;DHT22;47004;51.366;12.348;2023-09-19T08:05:15;19.00;99.90
18191;DHT22;47004;51.366;12.348;2023-09-19T08:07:16;19.00;99.90
18191;DHT22;47004;51.366;12.348;2023-09-19T08:09:18;18.90;99.90
18191;DHT22;47004;51.366;12.348;2023-09-19T08:11:22;18.90;99.90
18191;DHT22;47004;51.366;12.348;2023-09-19T08:13:25;18.90;99.90
18191;DHT22;47004;51.366;12.348;2023-09-19T08:15:28;18.90;99.90
18191;DHT22;47004;51.366;12.348;2023-09-19T08:17:34;19.10;99.90
18191;DHT22;47004;51.366;12.348;2023-09-19T08:19:37;18.90;99.90
18191;DHT22;47004;51.366;12.348;2023-09-19T08:21:42;18.90;99.90
18191;DHT22;47004;51.366;12.348;2023-09-19T08:23:47;18.90;99.90
18191;DHT22;47004;51.366;12.348;2023-09-19T08:25:49;18.80;99.90
18191;DHT22;47004;51.366;12.348;2023-09-19T08:27:55;18.80;99.90
18191;DHT22;47004;51.366;12.348;2023-09-19T08:29:58;18.80;99.90
18191;DHT22;47004;51.366;12.348;2023-09-19T08:32:00;18.80;99.90
18191;DHT22;47004;51.366;12.348;2023-09-19T08:34:02;18.80;99.90
18191;DHT22;47004;51.366;12.348;2023-09-19T08:36:06;18.80;99.90
18191;DHT22;47004;51.366;12.348;2023-09-19T08:38:10;18.80;99.90
18191;DHT22;47004;51.366;12.348;2023-09-19T08:40:12;18.90;99.90
18191;DHT22;47004;51.366;12.348;2023-09-19T08:42:14;18.80;99.90
18191;DHT22;47004;51.366;12.348;2023-09-19T08:44:17;18.80;99.90
18191;DHT22;47004;51.366;12.348;2023-09-19T08:46:20;18.80;99.90
18191;DHT22;47004;51.366;12.348;2023-09-19T08:48:26;18.80;99.90
18191;DHT22;47004;51.366;12.348;2023-09-19T08:50:29;18.80;99.90
18191;DHT22;47004;51.366;12.348;2023-09-19T08:52:41;18.80;99.90
18191;DHT22;47004;51.366;12.348;2023-09-19T08:54:43;18.70;99.90
18191;DHT22;47004;51.366;12.348;2023-09-19T08:56:47;18.70;99.90
18191;DHT22;47004;51.366;12.348;2023-09-19T08:58:51;18.70;99.90
18191;DHT22;47004;51.366;12.348;2023-09-19T09:00:56;18.70;99.90
18191;DHT22;47004;51.366;12.348;2023-09-19T09:02:59;18.80;99.90
18191;DHT22;47004;51.366;12.348;2023-09-19T09:05:04;18.90;99.90
18191;DHT22;47004;51.366;12.348;2023-09-19T09:07:09;18.90;99.90
18191;DHT22;47004;51.366;12.348;2023-09-19T09:09:13;19.00;99.90
18191;DHT22;47004;51.366;12.348;2023-09-19T09:11:16;19.10;99.90
18191;DHT22;47004;51.366;12.348;2023-09-19T09:13:18;19.20;99.90
18191;DHT22;47004;51.366;12.348;2023-09-19T09:15:23;19.20;99.90
18191;DHT22;47004;51.366;12.348;2023-09-19T09:17:25;19.30;99.90
18191;DHT22;47004;51.366;12.348;2023-09-19T09:19:28;19.30;99.90
18191;DHT22;47004;51.366;12.348;2023-09-19T09:21:31;19.40;99.90
18191;DHT22;47004;51.366;12.348;2023-09-19T09:23:36;19.50;99.90
18191;DHT22;47004;51.366;12.348;2023-09-19T09:25:51;19.50;99.90
18191;DHT22;47004;51.366;12.348;2023-09-19T09:28:01;19.40;99.90
18191;DHT22;47004;51.366;12.348;2023-09-19T09:30:03;19.50;99.90
18191;DHT22;47004;51.366;12.348;2023-09-19T09:32:16;19.50;99.90
18191;DHT22;47004;51.366;12.348;2023-09-19T09:34:20;19.60;99.90
18191;DHT22;47004;51.366;12.348;2023-09-19T09:36:34;19.60;99.90
18191;DHT22;47004;51.366;12.348;2023-09-19T09:38:44;19.60;99.90
18191;DHT22;47004;51.366;12.348;2023-09-19T09:40:48;19.70;99.90
18191;DHT22;47004;51.366;12.348;2023-09-19T09:42:54;19.70;99.90
18191;DHT22;47004;51.366;12.348;2023-09-19T09:45:13;19.80;99.90
18191;DHT22;47004;51.366;12.348;2023-09-19T09:47:16;19.80;99.90
18191;DHT22;47004;51.366;12.348;2023-09-19T09:49:38;19.90;99.90
18191;DHT22;47004;51.366;12.348;2023-09-19T09:51:39;19.90;99.90
18191;DHT22;47004;51.366;12.348;2023-09-19T09:53:43;19.90;99.90
18191;DHT22;47004;51.366;12.348;2023-09-19T09:56:00;19.90;99.90
18191;DHT22;47004;51.366;12.348;2023-09-19T09:58:21;20.00;99.90
18191;DHT22;47004;51.366;12.348;2023-09-19T10:00:29;20.00;99.90
18191;DHT22;47004;51.366;12.348;2023-09-19T10:02:43;20.10;99.90
18191;DHT22;47004;51.366;12.348;2023-09-19T10:04:47;20.10;99.90
18191;DHT22;47004;51.366;12.348;2023-09-19T10:06:52;20.10;99.90
18191;DHT22;47004;51.366;12.348;2023-09-19T10:08:58;20.20;99.90
18191;DHT22;47004;51.366;12.348;2023-09-19T10:11:17;20.30;99.90
18191;DHT22;47004;51.366;12.348;2023-09-19T10:13:22;20.20;99.90
18191;DHT22;47004;51.366;12.348;2023-09-19T10:15:32;20.20;99.90
18191;DHT22;47004;51.366;12.348;2023-09-19T10:17:34;20.20;99.90
18191;DHT22;47004;51.366;12.348;2023-09-19T10:19:37;20.20;99.90
18191;DHT22;47004;51.366;12.348;2023-09-19T10:21:45;20.10;99.90
18191;DHT22;47004;51.366;12.348;2023-09-19T10:23:49;20.10;99.90
18191;DHT22;47004;51.366;12.348;2023-09-19T10:25:53;20.00;99.90
18191;DHT22;47004;51.366;12.348;2023-09-19T10:27:57;20.00;99.90
18191;DHT22;47004;51.366;12.348;2023-09-19T10:30:07;20.00;99.90
18191;DHT22;47004;51.366;12.348;2023-09-19T10:32:11;20.10;99.90
18191;DHT22;47004;51.366;12.348;2023-09-19T10:34:19;20.10;99.90
18191;DHT22;47004;51.366;12.348;2023-09-19T10:36:24;20.10;99.90
18191;DHT22;47004;51.366;12.348;2023-09-19T10:38:27;20.10;99.90
18191;DHT22;47004;51.366;12.348;2023-09-19T10:40:29;20.20;99.90
18191;DHT22;47004;51.366;12.348;2023-09-19T10:42:37;20.30;99.90
18191;DHT22;47004;51.366;12.348;2023-09-19T10:44:41;20.30;99.90
18191;DHT22;47004;51.366;12.348;2023-09-19T10:46:45;20.30;99.90
18191;DHT22;47004;51.366;12.348;2023-09-19T10:48:50;20.30;99.50
18191;DHT22;47004;51.366;12.348;2023-09-19T10:51:01;20.30;99.90
18191;DHT22;47004;51.366;12.348;2023-09-19T10:53:06;20.30;99.90
18191;DHT22;47004;51.366;12.348;2023-09-19T10:55:16;20.40;99.90
18191;DHT22;47004;51.366;12.348;2023-09-19T10:57:20;20.40;99.90
18191;DHT22;47004;51.366;12.348;2023-09-19T10:59:24;20.50;99.90
18191;DHT22;47004;51.366;12.348;2023-09-19T11:01:47;20.60;99.90
18191;DHT22;47004;51.366;12.348;2023-09-19T11:04:21;20.60;99.90
18191;DHT22;47004;51.366;12.348;2023-09-19T11:06:24;20.70;99.90
18191;DHT22;47004;51.366;12.348;2023-09-19T11:08:26;20.70;99.90
18191;DHT22;47004;51.366;12.348;2023-09-19T11:10:46;20.80;97.50
18191;DHT22;47004;51.366;12.348;2023-09-19T11:12:49;20.90;94.80
18191;DHT22;47004;51.366;12.348;2023-09-19T11:14:50;21.00;92.00
18191;DHT22;47004;51.366;12.348;2023-09-19T11:17:31;21.00;90.00
18191;DHT22;47004;51.366;12.348;2023-09-19T11:22:16;21.00;84.90
18191;DHT22;47004;51.366;12.348;2023-09-19T11:24:32;21.00;85.60
18191;DHT22;47004;51.366;12.348;2023-09-19T11:26:44;21.00;85.00
18191;DHT22;47004;51.366;12.348;2023-09-19T11:28:48;21.00;81.10
18191;DHT22;47004;51.366;12.348;2023-09-19T11:36:36;21.20;90.10
18191;DHT22;47004;51.366;12.348;2023-09-19T11:38:57;21.30;73.80
18191;DHT22;47004;51.366;12.348;2023-09-19T11:41:39;21.30;75.80
18191;DHT22;47004;51.366;12.348;2023-09-19T11:43:41;21.30;74.80
18191;DHT22;47004;51.366;12.348;2023-09-19T11:46:06;21.50;75.00
18191;DHT22;47004;51.366;12.348;2023-09-19T11:48:07;21.50;77.80
18191;DHT22;47004;51.366;12.348;2023-09-19T11:50:10;21.60;77.90
18191;DHT22;47004;51.366;12.348;2023-09-19T11:52:22;21.80;76.30
18191;DHT22;47004;51.366;12.348;2023-09-19T11:54:25;21.90;68.80
18191;DHT22;47004;51.366;12.348;2023-09-19T11:56:29;22.00;70.40
18191;DHT22;47004;51.366;12.348;2023-09-19T11:58:32;22.10;70.40
18191;DHT22;47004;51.366;12.348;2023-09-19T12:00:34;22.20;66.50
18191;DHT22;47004;51.366;12.348;2023-09-19T12:02:39;22.30;60.80
18191;DHT22;47004;51.366;12.348;2023-09-19T12:04:44;22.30;61.90
18191;DHT22;47004;51.366;12.348;2023-09-19T12:06:56;22.40;59.40
18191;DHT22;47004;51.366;12.348;2023-09-19T12:09:00;22.30;61.30
18191;DHT22;47004;51.366;12.348;2023-09-19T12:11:06;22.30;61.80
18191;DHT22;47004;51.366;12.348;2023-09-19T12:13:16;22.40;62.30
18191;DHT22;47004;51.366;12.348;2023-09-19T12:15:23;22.30;60.80
18191;DHT22;47004;51.366;12.348;2023-09-19T12:17:35;22.30;63.90
18191;DHT22;47004;51.366;12.348;2023-09-19T12:19:37;22.50;61.90
18191;DHT22;47004;51.366;12.348;2023-09-19T12:21:39;22.50;61.00
18191;DHT22;47004;51.366;12.348;2023-09-19T12:23:41;22.50;61.40
18191;DHT22;47004;51.366;12.348;2023-09-19T12:25:44;22.50;66.30
18191;DHT22;47004;51.366;12.348;2023-09-19T12:27:49;22.60;65.00
18191;DHT22;47004;51.366;12.348;2023-09-19T12:29:53;22.60;63.00
18191;DHT22;47004;51.366;12.348;2023-09-19T12:31:57;22.70;60.50
18191;DHT22;47004;51.366;12.348;2023-09-19T12:33:58;22.70;57.60
18191;DHT22;47004;51.366;12.348;2023-09-19T12:36:19;22.70;56.60
18191;DHT22;47004;51.366;12.348;2023-09-19T12:38:29;22.80;53.20
18191;DHT22;47004;51.366;12.348;2023-09-19T12:40:33;22.90;53.40
18191;DHT22;47004;51.366;12.348;2023-09-19T12:42:39;23.00;55.60
18191;DHT22;47004;51.366;12.348;2023-09-19T12:44:43;23.20;53.40
18191;DHT22;47004;51.366;12.348;2023-09-19T12:46:45;23.40;54.00
18191;DHT22;47004;51.366;12.348;2023-09-19T12:48:47;23.50;53.40
18191;DHT22;47004;51.366;12.348;2023-09-19T12:51:04;23.60;51.50
18191;DHT22;47004;51.366;12.348;2023-09-19T12:53:25;23.60;49.30
18191;DHT22;47004;51.366;12.348;2023-09-19T12:55:30;23.80;48.90
18191;DHT22;47004;51.366;12.348;2023-09-19T12:57:33;23.90;48.40
18191;DHT22;47004;51.366;12.348;2023-09-19T12:59:36;24.10;44.90
18191;DHT22;47004;51.366;12.348;2023-09-19T13:01:41;24.40;42.80
18191;DHT22;47004;51.366;12.348;2023-09-19T13:04:13;24.70;41.60